Indian River Shores, Florida
Current Conditions -  °F | °C
As of 12:53 PM on Friday 31 Oct 2014 (Local Time) from KVRB Reporting Station
Scattered Clouds Scattered Clouds  
Wind Chill: 79°   Ceiling: Unl
Heat Index: 81°   Visibility: 10mi
Dew Point: 64°   Wind: 13mph
Humidity: 60%   Direction: 270°W
Pressure: 29.81"   Gusts: 17mph
Location:  27.7066°N, 80.3826°W
Report Text: KVRB 311653Z 27011G15KT 10SM SCT035 26/18 A2981 RMK AO2 SLP094 T02610178 $
Loading
Personal Weather Stations






























Interactive Weather Map New forecast layout! Learn more

10-Day Weather Forecast

Advertisements
Track Severe Weather on mobile